createdAt,value
2023-05-11T00:02:16.773Z,57.91
2023-05-11T00:04:44.957Z,58.08
2023-05-11T00:07:12.942Z,57.95
2023-05-11T00:09:41.776Z,57.98
2023-05-11T00:12:09.719Z,58.12
2023-05-11T00:14:37.664Z,58.30
2023-05-11T00:17:06.062Z,58.74
2023-05-11T00:19:35.518Z,58.40
2023-05-11T00:22:03.690Z,58.40
2023-05-11T00:24:31.625Z,58.36
2023-05-11T00:26:59.593Z,58.48
2023-05-11T00:29:27.547Z,58.08
2023-05-11T00:31:55.627Z,58.44
2023-05-11T00:34:25.382Z,58.01
2023-05-11T00:36:54.675Z,58.47
2023-05-11T00:39:22.613Z,58.56
2023-05-11T00:41:50.487Z,58.08
2023-05-11T00:44:18.429Z,58.19
2023-05-11T00:46:46.381Z,58.60
2023-05-11T00:49:17.192Z,58.61
2023-05-11T00:51:45.135Z,58.68
2023-05-11T00:54:15.797Z,58.71
2023-05-11T00:56:43.698Z,58.48
2023-05-11T00:59:11.662Z,58.03
2023-05-11T01:01:39.736Z,58.55
2023-05-11T01:04:07.751Z,58.18
2023-05-11T01:06:42.601Z,58.11
2023-05-11T01:09:13.088Z,58.35
2023-05-11T01:11:44.435Z,58.31
2023-05-11T01:14:15.170Z,58.18
2023-05-11T01:16:43.529Z,58.17
2023-05-11T01:19:13.868Z,58.19
2023-05-11T01:21:41.768Z,58.10
2023-05-11T01:24:28.021Z,58.10
2023-05-11T01:27:13.666Z,58.41
2023-05-11T01:30:16.827Z,58.38
2023-05-11T01:32:46.354Z,58.02
2023-05-11T01:35:19.044Z,58.06
2023-05-11T01:37:49.080Z,57.66
2023-05-11T01:40:18.281Z,57.89
2023-05-11T01:42:47.228Z,58.11
2023-05-11T01:45:15.136Z,58.73
2023-05-11T01:47:43.413Z,58.82
2023-05-11T01:50:12.934Z,58.43
2023-05-11T01:52:40.959Z,58.83
2023-05-11T01:55:09.636Z,58.78
2023-05-11T01:57:38.171Z,58.82
2023-05-11T02:00:07.375Z,59.22
2023-05-11T02:02:35.352Z,58.84
2023-05-11T02:05:03.395Z,58.92
2023-05-11T02:07:32.831Z,59.17
2023-05-11T02:10:00.757Z,58.86
2023-05-11T02:12:28.707Z,58.71
2023-05-11T02:14:56.667Z,59.20
2023-05-11T02:17:24.638Z,58.92
2023-05-11T02:19:52.663Z,59.23
2023-05-11T02:22:20.611Z,59.33
2023-05-11T02:24:49.924Z,59.09
2023-05-11T02:27:17.895Z,59.36
2023-05-11T02:29:46.489Z,59.16
2023-05-11T02:32:16.956Z,58.92
2023-05-11T02:34:45.483Z,59.20
2023-05-11T02:37:15.361Z,59.01
2023-05-11T02:39:45.419Z,59.37
2023-05-11T02:42:16.187Z,59.29
2023-05-11T02:44:46.842Z,59.32
2023-05-11T02:47:15.051Z,59.30
2023-05-11T02:49:43.149Z,59.87
2023-05-11T02:52:11.115Z,59.26
2023-05-11T02:54:39.018Z,59.45
2023-05-11T02:57:09.656Z,59.81
2023-05-11T02:59:39.026Z,59.11
2023-05-11T03:02:12.698Z,59.04
2023-05-11T03:04:40.645Z,58.83
2023-05-11T03:07:08.519Z,58.61
2023-05-11T03:09:42.257Z,58.72
2023-05-11T03:12:10.198Z,58.70
2023-05-11T03:14:42.632Z,59.08
2023-05-11T03:17:10.581Z,58.85
2023-05-11T03:19:38.563Z,59.34
2023-05-11T03:22:06.734Z,58.99
2023-05-11T03:24:34.632Z,58.66
2023-05-11T03:27:03.741Z,59.06
2023-05-11T03:29:32.145Z,58.96
2023-05-11T03:32:01.490Z,58.66
2023-05-11T03:34:29.764Z,58.97
2023-05-11T03:36:57.719Z,58.56
2023-05-11T03:39:25.659Z,59.06
2023-05-11T03:41:53.575Z,59.35
2023-05-11T03:44:21.490Z,59.00
2023-05-11T03:46:50.495Z,58.85
2023-05-11T03:49:19.858Z,58.66
2023-05-11T03:51:47.820Z,59.21
2023-05-11T03:54:15.709Z,58.84
2023-05-11T03:56:43.615Z,58.83
2023-05-11T03:59:15.040Z,58.78
2023-05-11T04:01:43.375Z,59.16
2023-05-11T04:04:12.202Z,58.71
2023-05-11T04:06:41.682Z,59.26
2023-05-11T04:09:09.643Z,58.70
2023-05-11T04:11:38.117Z,58.43
2023-05-11T04:14:06.033Z,58.15
2023-05-11T04:16:34.010Z,57.89
2023-05-11T04:19:02.347Z,58.06
2023-05-11T04:21:30.704Z,57.49
2023-05-11T04:24:00.136Z,57.79
2023-05-11T04:26:28.053Z,57.33
2023-05-11T04:28:55.979Z,57.17
2023-05-11T04:31:23.972Z,57.66
2023-05-11T04:33:52.117Z,57.74
2023-05-11T04:36:22.294Z,57.84
2023-05-11T04:38:50.132Z,57.43
2023-05-11T04:41:22.474Z,57.52
2023-05-11T04:43:50.418Z,57.32
2023-05-11T04:46:18.845Z,57.68
2023-05-11T04:48:46.767Z,57.42
2023-05-11T04:51:14.615Z,57.79
2023-05-11T04:53:42.646Z,57.80
2023-05-11T04:56:10.800Z,57.21
2023-05-11T04:58:40.118Z,57.17
2023-05-11T05:01:08.121Z,57.43
2023-05-11T05:03:36.094Z,56.85
2023-05-11T05:06:03.988Z,56.34
2023-05-11T05:08:31.916Z,56.72
2023-05-11T05:10:59.852Z,56.31
2023-05-11T05:13:27.806Z,56.20
2023-05-11T05:15:57.097Z,56.65
2023-05-11T05:18:25.189Z,56.25
2023-05-11T05:20:53.122Z,56.42
2023-05-11T05:23:20.977Z,56.95
2023-05-11T05:25:52.058Z,57.03
2023-05-11T05:28:20.278Z,57.17
2023-05-11T05:30:48.204Z,57.04
2023-05-11T05:33:17.527Z,57.57
2023-05-11T05:35:46.824Z,57.48
2023-05-11T05:38:15.229Z,57.43
2023-05-11T05:40:43.208Z,57.00
2023-05-11T05:43:11.328Z,57.60
2023-05-11T05:45:39.259Z,57.38
2023-05-11T05:48:09.781Z,57.03
2023-05-11T05:50:39.282Z,57.22
2023-05-11T05:53:07.931Z,57.14
2023-05-11T05:55:35.987Z,56.94
2023-05-11T05:58:04.010Z,57.36
2023-05-11T06:00:31.984Z,57.17
2023-05-11T06:03:02.787Z,57.48
2023-05-11T06:05:30.881Z,57.32
2023-05-11T06:08:09.711Z,57.24
2023-05-11T06:10:39.146Z,57.50
2023-05-11T06:13:08.167Z,57.44
2023-05-11T06:15:36.217Z,57.30
2023-05-11T06:18:04.343Z,56.90
2023-05-11T06:20:32.935Z,57.07
2023-05-11T06:23:02.208Z,56.93
2023-05-11T06:25:30.148Z,57.35
2023-05-11T06:27:58.039Z,57.39
2023-05-11T06:30:26.004Z,57.11
2023-05-11T06:32:54.004Z,56.75
2023-05-11T06:35:22.674Z,56.95
2023-05-11T06:37:50.617Z,56.59
2023-05-11T06:40:20.226Z,56.49
2023-05-11T06:42:48.377Z,56.35
2023-05-11T06:45:16.583Z,56.33
2023-05-11T06:47:44.600Z,56.53
2023-05-11T06:50:12.673Z,56.11
2023-05-11T06:52:40.605Z,56.02
2023-05-11T06:55:09.431Z,56.31
2023-05-11T06:57:38.876Z,56.31
2023-05-11T07:00:08.284Z,56.19
2023-05-11T07:02:36.433Z,55.96
2023-05-11T07:05:04.720Z,56.17
2023-05-11T07:07:32.900Z,56.14
2023-05-11T07:10:01.061Z,55.62
2023-05-11T07:12:28.992Z,56.14
2023-05-11T07:14:58.372Z,55.68
2023-05-11T07:17:26.425Z,55.72
2023-05-11T07:19:57.217Z,55.66
2023-05-11T07:22:25.160Z,55.78
2023-05-11T07:24:53.171Z,55.75
2023-05-11T07:27:21.180Z,55.67
2023-05-11T07:29:49.112Z,55.41
2023-05-11T07:32:18.455Z,55.70
2023-05-11T07:34:46.368Z,55.71
2023-05-11T07:37:14.328Z,55.49
2023-05-11T07:39:42.268Z,55.46
2023-05-11T07:42:10.222Z,55.27
2023-05-11T07:44:38.178Z,55.16
2023-05-11T07:47:06.303Z,55.30
2023-05-11T07:49:43.468Z,55.05
2023-05-11T07:52:12.249Z,55.11
2023-05-11T07:54:40.962Z,55.34
2023-05-11T07:57:09.021Z,55.12
2023-05-11T07:59:37.267Z,55.27
2023-05-11T08:02:05.914Z,55.50
2023-05-11T08:04:36.216Z,55.37
2023-05-11T08:07:04.379Z,55.47
2023-05-11T08:09:32.360Z,54.98
2023-05-11T08:12:01.694Z,55.08
2023-05-11T08:14:29.710Z,55.01
2023-05-11T08:16:57.690Z,55.02
2023-05-11T08:19:25.661Z,54.96
2023-05-11T08:21:55.075Z,54.90
2023-05-11T08:24:22.992Z,55.22
2023-05-11T08:26:50.939Z,55.25
2023-05-11T08:29:18.893Z,55.20
2023-05-11T08:31:46.905Z,55.05
2023-05-11T08:34:19.576Z,54.87
2023-05-11T08:36:48.190Z,54.90
2023-05-11T08:39:28.575Z,55.03
2023-05-11T08:42:07.054Z,54.75
2023-05-11T08:44:37.789Z,54.85
2023-05-11T08:47:21.799Z,54.71
2023-05-11T08:49:53.209Z,54.59
2023-05-11T08:52:21.611Z,54.51
2023-05-11T08:54:51.095Z,54.76
2023-05-11T08:57:19.002Z,54.87
2023-05-11T08:59:47.072Z,54.44
2023-05-11T09:02:17.995Z,54.54
2023-05-11T09:04:48.225Z,54.62
2023-05-11T09:07:17.661Z,54.46
2023-05-11T09:09:46.301Z,54.50
2023-05-11T09:12:15.641Z,54.47
2023-05-11T09:14:43.854Z,54.78
2023-05-11T09:17:12.137Z,54.62
2023-05-11T09:19:44.775Z,54.54
2023-05-11T09:22:12.726Z,54.36
2023-05-11T09:24:43.647Z,54.17
2023-05-11T09:27:11.677Z,54.28
2023-05-11T09:29:41.053Z,54.61
2023-05-11T09:32:09.062Z,54.59
2023-05-11T09:34:43.105Z,54.30
2023-05-11T09:37:17.632Z,54.51
2023-05-11T09:40:13.996Z,53.99
2023-05-11T09:42:33.490Z,54.34
2023-05-11T09:45:02.817Z,54.22
2023-05-11T09:47:33.184Z,54.29
2023-05-11T09:50:01.374Z,54.19
2023-05-11T09:52:29.394Z,54.57
2023-05-11T09:54:57.354Z,54.52
2023-05-11T09:57:26.321Z,54.61
2023-05-11T09:59:54.483Z,54.35
2023-05-11T10:02:24.976Z,54.51
2023-05-11T10:04:54.297Z,54.37
2023-05-11T10:07:29.123Z,54.06
2023-05-11T10:09:57.938Z,54.68
2023-05-11T10:12:27.328Z,54.55
2023-05-11T10:14:56.784Z,54.16
2023-05-11T10:17:26.251Z,54.13
2023-05-11T10:19:55.772Z,53.72
2023-05-11T10:22:23.866Z,53.91
2023-05-11T10:24:51.875Z,53.89
2023-05-11T10:27:19.971Z,53.37
2023-05-11T10:29:48.117Z,54.42
2023-05-11T10:32:16.874Z,54.79
2023-05-11T10:34:46.594Z,54.47
2023-05-11T10:37:14.688Z,54.50
2023-05-11T10:39:42.720Z,54.26
2023-05-11T10:42:19.939Z,54.21
2023-05-11T10:45:01.519Z,54.20
2023-05-11T10:47:55.390Z,54.30
2023-05-11T10:50:53.328Z,53.80
2023-05-11T10:53:46.371Z,53.79
2023-05-11T10:56:27.905Z,54.11
2023-05-11T10:59:07.596Z,54.12
2023-05-11T11:01:39.532Z,54.25
2023-05-11T11:04:08.375Z,54.32
2023-05-11T11:06:38.886Z,54.28
2023-05-11T11:09:08.052Z,54.04
2023-05-11T11:11:39.099Z,54.26
2023-05-11T11:14:09.463Z,54.02
2023-05-11T11:16:37.679Z,53.89
2023-05-11T11:19:36.638Z,53.95
2023-05-11T11:22:06.344Z,54.01
2023-05-11T11:24:45.920Z,53.91
2023-05-11T11:27:13.853Z,53.88
2023-05-11T11:29:41.947Z,53.94
2023-05-11T11:32:28.735Z,53.82
2023-05-11T11:34:56.765Z,53.83
2023-05-11T11:37:26.068Z,53.63
2023-05-11T11:40:14.036Z,53.63
2023-05-11T11:42:44.254Z,53.39
2023-05-11T11:45:32.642Z,53.65
2023-05-11T11:48:11.388Z,53.41
2023-05-11T11:50:39.995Z,53.59
2023-05-11T11:53:12.894Z,53.48
2023-05-11T11:55:50.243Z,53.25
2023-05-11T11:58:55.778Z,53.30
2023-05-11T12:01:25.901Z,53.24
2023-05-11T12:04:42.044Z,53.35
2023-05-11T12:07:11.569Z,53.35
2023-05-11T12:09:43.829Z,53.35
2023-05-11T12:12:12.580Z,53.54
2023-05-11T12:14:42.041Z,53.62
2023-05-11T12:17:15.397Z,53.48
2023-05-11T12:19:46.611Z,53.46
2023-05-11T12:22:16.519Z,53.43
2023-05-11T12:24:45.879Z,53.37
2023-05-11T12:27:14.306Z,53.10
2023-05-11T12:29:42.526Z,53.51
2023-05-11T12:32:13.698Z,53.17
2023-05-11T12:34:41.895Z,53.27
2023-05-11T12:37:09.850Z,53.10
2023-05-11T12:39:37.778Z,53.25
2023-05-11T12:42:07.665Z,53.15
2023-05-11T12:44:35.660Z,53.27
2023-05-11T12:47:03.728Z,53.21
2023-05-11T12:49:31.664Z,53.01
2023-05-11T12:52:06.137Z,53.03
2023-05-11T12:54:34.698Z,53.03
2023-05-11T12:57:03.255Z,52.79
2023-05-11T12:59:34.389Z,52.48
2023-05-11T13:02:13.052Z,52.41
2023-05-11T13:04:42.514Z,52.33
2023-05-11T13:07:10.510Z,52.38
2023-05-11T13:09:38.514Z,52.35
2023-05-11T13:12:14.779Z,52.34
2023-05-11T13:14:44.377Z,52.21
2023-05-11T13:17:12.339Z,52.10
2023-05-11T13:19:40.821Z,52.06
2023-05-11T13:22:09.137Z,51.85
2023-05-11T13:24:37.296Z,51.80
2023-05-11T13:27:05.697Z,51.72
2023-05-11T13:29:34.058Z,51.32
2023-05-11T13:32:03.655Z,51.17
2023-05-11T13:34:31.655Z,51.28
2023-05-11T13:36:59.786Z,51.20
2023-05-11T13:39:27.745Z,51.10
2023-05-11T13:41:56.189Z,51.03
2023-05-11T13:44:24.261Z,50.94
2023-05-11T13:46:52.230Z,51.29
2023-05-11T13:49:21.793Z,51.32
2023-05-11T13:51:49.806Z,51.07
2023-05-11T13:54:17.732Z,51.15
2023-05-11T13:56:45.746Z,51.05
2023-05-11T13:59:13.767Z,50.91
2023-05-11T14:01:41.985Z,51.09
2023-05-11T14:04:09.984Z,51.17
2023-05-11T14:06:39.272Z,51.04
2023-05-11T14:09:07.221Z,51.04
2023-05-11T14:11:36.391Z,50.91
2023-05-11T14:14:06.096Z,50.60
2023-05-11T14:16:34.074Z,50.57
2023-05-11T14:19:02.088Z,50.91
2023-05-11T14:21:30.126Z,50.74
2023-05-11T14:24:10.853Z,50.68
2023-05-11T14:26:40.490Z,50.86
2023-05-11T14:29:08.515Z,50.58
2023-05-11T14:31:37.088Z,50.44
2023-05-11T14:34:05.259Z,50.42
2023-05-11T14:36:33.470Z,50.37
2023-05-11T14:39:02.794Z,50.25
2023-05-11T14:41:31.380Z,50.42
2023-05-11T14:43:59.325Z,50.42
2023-05-11T14:46:27.457Z,50.52
2023-05-11T14:48:55.481Z,50.50
2023-05-11T14:51:23.436Z,50.63
2023-05-11T14:53:51.858Z,50.63
2023-05-11T14:56:22.113Z,50.25
2023-05-11T14:58:50.215Z,50.31
2023-05-11T15:01:18.290Z,50.13
2023-05-11T15:03:46.384Z,50.39
2023-05-11T15:06:21.019Z,50.58
2023-05-11T15:08:49.247Z,50.69
2023-05-11T15:11:17.239Z,50.74
2023-05-11T15:13:48.432Z,51.00
2023-05-11T15:16:16.505Z,50.72
2023-05-11T15:18:44.575Z,50.55
2023-05-11T15:21:12.530Z,50.63
2023-05-11T15:23:40.823Z,50.45
2023-05-11T15:26:08.794Z,50.64
2023-05-11T15:28:36.723Z,50.79
2023-05-11T15:31:06.159Z,50.81
2023-05-11T15:33:34.307Z,50.75
2023-05-11T15:36:02.286Z,50.56
2023-05-11T15:38:30.411Z,50.49
2023-05-11T15:40:58.354Z,50.79
2023-05-11T15:43:26.312Z,50.76
2023-05-11T15:45:55.385Z,50.38
2023-05-11T15:48:24.730Z,50.25
2023-05-11T15:50:52.776Z,50.39
2023-05-11T15:53:20.755Z,49.87
2023-05-11T15:55:50.915Z,50.11
2023-05-11T15:58:19.008Z,49.72
2023-05-11T16:00:46.973Z,49.80
2023-05-11T16:03:15.072Z,49.66
2023-05-11T16:05:44.697Z,49.68
2023-05-11T16:08:12.699Z,49.67
2023-05-11T16:10:40.650Z,49.62
2023-05-11T16:13:09.145Z,49.86
2023-05-11T16:15:37.059Z,49.76
2023-05-11T16:18:05.597Z,50.15
2023-05-11T16:20:33.612Z,50.04
2023-05-11T16:23:03.007Z,49.83
2023-05-11T16:25:30.999Z,50.05
2023-05-11T16:27:58.937Z,50.10
2023-05-11T16:30:27.316Z,50.05
2023-05-11T16:32:55.492Z,49.85
2023-05-11T16:35:23.507Z,50.16
2023-05-11T16:37:51.462Z,50.14
2023-05-11T16:40:21.242Z,49.91
2023-05-11T16:42:49.552Z,50.00
2023-05-11T16:45:17.702Z,50.16
2023-05-11T16:47:46.332Z,50.12
2023-05-11T16:50:16.257Z,50.12
2023-05-11T16:52:44.715Z,49.96
2023-05-11T16:55:12.696Z,49.93
2023-05-11T16:57:42.041Z,50.26
2023-05-11T17:00:10.760Z,50.21
2023-05-11T17:02:38.752Z,50.50
2023-05-11T17:05:08.138Z,50.69
2023-05-11T17:07:36.159Z,50.46
2023-05-11T17:10:04.249Z,50.60
2023-05-11T17:12:35.724Z,50.43
2023-05-11T17:15:09.601Z,50.61
2023-05-11T17:17:38.288Z,50.28
2023-05-11T17:20:07.806Z,50.43
2023-05-11T17:22:35.850Z,49.98
2023-05-11T17:25:04.053Z,49.83
2023-05-11T17:27:32.130Z,49.77
2023-05-11T17:30:00.158Z,50.01
2023-05-11T17:32:29.700Z,49.72
2023-05-11T17:34:57.827Z,49.37
2023-05-11T17:37:31.834Z,49.50
2023-05-11T17:40:01.170Z,49.53
2023-05-11T17:42:29.453Z,49.73
2023-05-11T17:44:57.456Z,49.80
2023-05-11T17:47:26.153Z,49.86
2023-05-11T17:49:55.837Z,49.97
2023-05-11T17:52:24.586Z,50.10
2023-05-11T17:54:52.569Z,49.78
2023-05-11T17:57:20.629Z,50.13
2023-05-11T17:59:48.625Z,50.03
2023-05-11T18:02:17.219Z,50.07
2023-05-11T18:04:45.277Z,50.22
2023-05-11T18:07:14.660Z,50.59
2023-05-11T18:09:42.729Z,50.44
2023-05-11T18:12:11.794Z,50.80
2023-05-11T18:14:39.770Z,50.86
2023-05-11T18:17:07.720Z,50.82
2023-05-11T18:19:35.731Z,51.13
2023-05-11T18:22:04.415Z,51.18
2023-05-11T18:24:33.736Z,51.30
2023-05-11T18:27:05.189Z,51.38
2023-05-11T18:29:33.372Z,51.29
2023-05-11T18:32:01.398Z,51.45
2023-05-11T18:34:29.389Z,51.31
2023-05-11T18:36:57.406Z,51.58
2023-05-11T18:39:25.337Z,51.39
2023-05-11T18:41:54.774Z,51.61
2023-05-11T18:44:22.790Z,51.63
2023-05-11T18:46:50.934Z,51.75
2023-05-11T18:49:19.015Z,51.86
2023-05-11T18:51:47.373Z,52.14
2023-05-11T18:54:15.326Z,52.03
2023-05-11T18:56:43.291Z,51.99
2023-05-11T18:59:12.629Z,52.24
2023-05-11T19:04:16.464Z,52.47
2023-05-11T19:06:44.387Z,52.49
2023-05-11T19:09:14.343Z,52.52
2023-05-11T19:11:43.040Z,52.49
2023-05-11T19:14:14.698Z,52.72
2023-05-11T19:16:42.822Z,52.90
2023-05-11T19:19:13.887Z,52.83
2023-05-11T19:21:43.348Z,52.82
2023-05-11T19:24:11.398Z,53.46
2023-05-11T19:26:39.364Z,53.13
2023-05-11T19:29:08.162Z,53.03
2023-05-11T19:31:37.569Z,53.17
2023-05-11T19:34:07.243Z,53.21
2023-05-11T19:36:35.368Z,53.21
2023-05-11T19:39:04.524Z,53.24
2023-05-11T19:41:33.242Z,53.45
2023-05-11T19:44:01.769Z,53.68
2023-05-11T19:46:29.955Z,53.51
2023-05-11T19:48:59.392Z,53.59
2023-05-11T19:51:30.206Z,53.57
2023-05-11T19:53:58.123Z,53.62
2023-05-11T19:56:29.412Z,53.65
2023-05-11T19:58:57.468Z,53.69
2023-05-11T20:01:25.473Z,53.76
2023-05-11T20:03:53.638Z,53.79
2023-05-11T20:06:23.376Z,53.64
2023-05-11T20:08:54.337Z,54.00
2023-05-11T20:11:22.606Z,53.82
2023-05-11T20:13:51.139Z,53.97
2023-05-11T20:16:19.220Z,53.99
2023-05-11T20:18:47.430Z,53.95
2023-05-11T20:21:15.750Z,54.05
2023-05-11T20:23:45.285Z,54.23
2023-05-11T20:26:13.670Z,53.89
2023-05-11T20:28:41.689Z,54.09
2023-05-11T20:31:11.072Z,54.13
2023-05-11T20:36:10.654Z,54.36
2023-05-11T20:38:38.618Z,54.44
2023-05-11T20:41:08.546Z,54.29
2023-05-11T20:43:36.592Z,54.26
2023-05-11T20:46:04.917Z,54.72
2023-05-11T20:48:40.401Z,54.69
2023-05-11T20:51:09.352Z,54.81
2023-05-11T20:53:37.343Z,54.90
2023-05-11T20:56:05.382Z,54.90
2023-05-11T20:58:34.793Z,54.95
2023-05-11T21:01:02.758Z,54.69
2023-05-11T21:03:30.877Z,54.85
2023-05-11T21:05:58.948Z,54.99
2023-05-11T21:08:26.989Z,55.13
2023-05-11T21:10:54.959Z,55.30
2023-05-11T21:13:22.976Z,55.31
2023-05-11T21:15:52.288Z,55.16
2023-05-11T21:18:20.310Z,55.39
2023-05-11T21:20:48.312Z,55.49
2023-05-11T21:23:16.279Z,55.47
2023-05-11T21:25:44.245Z,55.60
2023-05-11T21:28:12.235Z,55.81
2023-05-11T21:30:40.234Z,55.84
2023-05-11T21:33:09.707Z,55.62
2023-05-11T21:35:37.646Z,55.79
2023-05-11T21:38:05.631Z,55.84
2023-05-11T21:40:33.549Z,55.81
2023-05-11T21:43:01.476Z,55.90
2023-05-11T21:45:29.873Z,55.56
2023-05-11T21:48:01.139Z,55.99
2023-05-11T21:50:30.871Z,55.86
2023-05-11T21:52:59.168Z,55.83
2023-05-11T21:55:27.123Z,55.93
2023-05-11T21:57:55.072Z,55.88
2023-05-11T22:00:23.740Z,56.01
2023-05-11T22:02:51.888Z,55.84
2023-05-11T22:05:20.085Z,55.79
2023-05-11T22:07:49.439Z,55.87
2023-05-11T22:10:18.820Z,55.85
2023-05-11T22:12:47.088Z,55.88
2023-05-11T22:15:15.004Z,56.20
2023-05-11T22:17:42.997Z,56.34
2023-05-11T22:20:11.372Z,56.39
2023-05-11T22:22:39.723Z,56.53
2023-05-11T22:25:10.124Z,56.49
2023-05-11T22:27:38.147Z,56.28
2023-05-11T22:30:07.524Z,56.60
2023-05-11T22:32:36.097Z,56.58
2023-05-11T22:35:04.141Z,56.59
2023-05-11T22:37:32.721Z,56.38
2023-05-11T22:40:01.151Z,56.69
2023-05-11T22:42:32.848Z,56.60
2023-05-11T22:45:00.784Z,56.77
2023-05-11T22:47:28.784Z,56.94
2023-05-11T22:49:56.907Z,56.83
2023-05-11T22:52:24.823Z,57.13
2023-05-11T22:54:54.660Z,57.20
2023-05-11T22:57:24.145Z,57.18
2023-05-11T22:59:53.565Z,57.06
2023-05-11T23:02:23.076Z,57.27
2023-05-11T23:04:52.006Z,57.21
2023-05-11T23:07:20.020Z,56.95
2023-05-11T23:09:49.786Z,57.29
2023-05-11T23:12:18.327Z,56.97
2023-05-11T23:14:46.230Z,57.22
2023-05-11T23:17:15.675Z,57.19
2023-05-11T23:19:43.748Z,57.11
2023-05-11T23:22:11.674Z,57.51
2023-05-11T23:24:39.592Z,57.72
2023-05-11T23:27:07.572Z,57.88
2023-05-11T23:29:35.830Z,57.56
2023-05-11T23:32:04.317Z,57.86
2023-05-11T23:34:33.778Z,57.72
2023-05-11T23:37:01.819Z,57.81
2023-05-11T23:39:29.800Z,57.68
2023-05-11T23:41:57.721Z,57.62
2023-05-11T23:44:25.883Z,57.51
2023-05-11T23:46:53.939Z,57.55
2023-05-11T23:49:22.526Z,57.78
2023-05-11T23:51:52.515Z,57.90
2023-05-11T23:54:20.524Z,57.79
2023-05-11T23:56:48.460Z,58.09
2023-05-11T23:59:16.433Z,58.24
